This is the latest recevied weather packets stored in our database for station/object WX2NJ. If no packets are shown the sender has not sent any weather packets the latest 10 day(s).
| Time | Temp. | Humidity | Pressure | Rain* | Wind** | Luminosity | Snow |
|---|---|---|---|---|---|---|---|
| 1778002596 | 23.89° C | 55% | 1014.2 hPa | 0 mm | - | 774 W/m² | - |
| 1778002292 | 24.44° C | 54% | 1014.3 hPa | 0 mm | - | 681 W/m² | - |
| 1778001990 | 23.89° C | 55% | 1014.3 hPa | 0 mm | - | 750 W/m² | - |
| 1778001686 | 24.44° C | 54% | 1014.3 hPa | 0 mm | - | 596 W/m² | - |
| 1778001381 | 24.44° C | 55% | 1014.4 hPa | 0 mm | - | 552 W/m² | - |
| 1778001079 | 24.44° C | 55% | 1014.3 hPa | 0 mm | - | 626 W/m² | - |
| 1778000776 | 24.44° C | 54% | 1014 hPa | 0 mm | - | 575 W/m² | - |
| 1778000472 | 24.44° C | 54% | 1014.2 hPa | 0 mm | - | 773 W/m² | - |
| 1778000167 | 23.89° C | 56% | 1014.2 hPa | 0 mm | - | 688 W/m² | - |
| 1777999863 | 25° C | 54% | 1014.3 hPa | 0 mm | - | 448 W/m² | - |
| 1777999559 | 25° C | 53% | 1014.2 hPa | 0 mm | - | 418 W/m² | - |
| 1777999256 | 25° C | 54% | 1014.3 hPa | 0 mm | - | 351 W/m² | - |
| 1777998954 | 24.44° C | 55% | 1014.3 hPa | 0 mm | - | 511 W/m² | - |
| 1777998651 | 25° C | 55% | 1014.6 hPa | 0 mm | - | 757 W/m² | - |
| 1777998344 | 24.44° C | 56% | 1014.6 hPa | 0 mm | - | 691 W/m² | - |
| 1777998041 | 24.44° C | 56% | 1014.8 hPa | 0 mm | - | 618 W/m² | - |
| 1777997738 | 23.89° C | 58% | 1014.7 hPa | 0 mm | - | 657 W/m² | - |
| 1777997435 | 23.89° C | 57% | 1014.7 hPa | 0 mm | - | 678 W/m² | - |
| 1777997133 | 23.89° C | 57% | 1014.8 hPa | 0 mm | - | 705 W/m² | - |
| 1777996830 | 23.89° C | 56% | 1014.7 hPa | 0 mm | - | 593 W/m² | - |
| 1777996526 | 23.89° C | 58% | 1014.9 hPa | 0 mm | - | 415 W/m² | - |
| 1777996223 | 24.44° C | 56% | 1014.9 hPa | 0 mm | - | 274 W/m² | - |
| 1777995919 | 24.44° C | 56% | 1014.9 hPa | 0 mm | - | 248 W/m² | - |
| 1777995615 | 23.33° C | 59% | 1015.1 hPa | 0 mm | - | 237 W/m² | - |
| 1777995313 | 23.89° C | 56% | 1014.9 hPa | 0 mm | - | 230 W/m² | - |
* Rain latest hour (hover to see other rain measurements)
** Current wind speed in m/s (hover to see current wind gust speed)